createdAt,value
2017-10-17T00:01:26.019Z,85.60
2017-10-17T00:03:54.287Z,84.90
2017-10-17T00:06:21.769Z,84.80
2017-10-17T00:08:49.246Z,85.30
2017-10-17T00:11:17.497Z,84.40
2017-10-17T00:13:44.978Z,84.30
2017-10-17T00:16:13.232Z,84.20
2017-10-17T00:18:40.731Z,84.10
2017-10-17T00:21:08.220Z,84.60
2017-10-17T00:23:35.712Z,83.10
2017-10-17T00:26:03.205Z,83.40
2017-10-17T00:28:31.455Z,84.50
2017-10-17T00:30:59.704Z,84.00
2017-10-17T00:33:27.186Z,83.90
2017-10-17T00:35:59.221Z,83.60
2017-10-17T00:38:28.554Z,84.00
2017-10-17T00:40:56.038Z,83.80
2017-10-17T00:43:24.347Z,83.30
2017-10-17T00:45:51.829Z,83.20
2017-10-17T00:48:23.930Z,83.00
2017-10-17T00:50:52.191Z,84.50
2017-10-17T00:53:19.672Z,84.50
2017-10-17T00:55:47.924Z,84.00
2017-10-17T00:58:19.982Z,84.00
2017-10-17T01:00:47.472Z,83.20
2017-10-17T01:03:15.726Z,82.40
2017-10-17T01:05:43.210Z,82.30
2017-10-17T01:08:11.462Z,82.40
2017-10-17T01:10:38.954Z,82.40
2017-10-17T01:13:07.203Z,80.90
2017-10-17T01:15:34.689Z,80.80
2017-10-17T01:18:02.925Z,78.60
2017-10-17T01:20:30.397Z,78.40
2017-10-17T01:22:57.873Z,78.90
2017-10-17T01:25:26.161Z,79.90
2017-10-17T01:27:55.922Z,80.40
2017-10-17T01:30:23.408Z,80.30
2017-10-17T01:32:50.895Z,80.20
2017-10-17T01:35:18.374Z,80.10
2017-10-17T01:37:45.858Z,79.30
2017-10-17T01:40:27.959Z,80.60
2017-10-17T01:42:55.443Z,80.00
2017-10-17T01:45:23.711Z,80.10
2017-10-17T01:47:53.755Z,81.20
2017-10-17T01:50:22.004Z,82.10
2017-10-17T01:52:50.300Z,82.00
2017-10-17T01:55:17.786Z,82.60
2017-10-17T01:57:59.757Z,82.30
2017-10-17T02:00:27.998Z,82.00
2017-10-17T02:02:55.477Z,82.10
2017-10-17T02:05:22.957Z,82.50
2017-10-17T02:07:53.951Z,81.90
2017-10-17T02:10:21.443Z,81.70
2017-10-17T02:12:48.917Z,81.20
2017-10-17T02:15:17.165Z,81.50
2017-10-17T02:17:47.191Z,81.40
2017-10-17T02:20:14.666Z,81.20
2017-10-17T02:22:42.140Z,80.60
2017-10-17T02:25:14.698Z,80.20
2017-10-17T02:27:42.182Z,80.00
2017-10-17T02:30:10.426Z,80.40
2017-10-17T02:32:37.898Z,80.30
2017-10-17T02:35:18.637Z,81.00
2017-10-17T02:37:46.128Z,81.00
2017-10-17T02:40:14.376Z,82.20
2017-10-17T02:42:41.871Z,81.90
2017-10-17T02:45:10.112Z,82.40
2017-10-17T02:47:39.290Z,82.30
2017-10-17T02:50:08.144Z,82.40
2017-10-17T02:52:42.986Z,82.40
2017-10-17T02:55:25.356Z,82.30
2017-10-17T02:57:52.831Z,83.10
2017-10-17T03:00:21.079Z,81.50
2017-10-17T03:02:50.511Z,81.50
2017-10-17T03:05:18.762Z,82.40
2017-10-17T03:07:52.594Z,82.30
2017-10-17T03:10:20.843Z,82.20
2017-10-17T03:12:48.326Z,82.20
2017-10-17T03:15:27.666Z,82.00
2017-10-17T03:17:55.915Z,81.80
2017-10-17T03:20:33.306Z,81.60
2017-10-17T03:23:02.358Z,81.80
2017-10-17T03:25:29.835Z,81.50
2017-10-17T03:28:15.762Z,82.40
2017-10-17T03:30:47.168Z,81.70
2017-10-17T03:33:29.581Z,82.00
2017-10-17T03:35:57.073Z,81.90
2017-10-17T03:38:44.447Z,82.30
2017-10-17T03:44:28.094Z,83.40
2017-10-17T03:46:56.342Z,82.60
2017-10-17T03:49:28.539Z,82.50
2017-10-17T03:51:56.778Z,82.40
2017-10-17T03:54:37.737Z,82.30
2017-10-17T03:57:11.638Z,82.60
2017-10-17T03:59:45.074Z,83.60
2017-10-17T04:02:12.564Z,84.70
2017-10-17T04:04:47.409Z,83.60
2017-10-17T04:10:36.947Z,84.70
2017-10-17T04:13:12.358Z,84.10
2017-10-17T04:15:39.853Z,83.60
2017-10-17T04:18:28.789Z,84.80
2017-10-17T04:20:59.279Z,83.70
2017-10-17T04:23:34.026Z,83.80
2017-10-17T04:26:07.123Z,83.90
2017-10-17T04:28:39.574Z,84.80
2017-10-17T04:31:23.337Z,84.70
2017-10-17T04:34:11.195Z,84.70
2017-10-17T04:39:32.074Z,84.60
2017-10-17T04:42:07.930Z,85.40
2017-10-17T04:44:48.126Z,85.30
2017-10-17T04:47:18.066Z,85.30
2017-10-17T04:53:24.243Z,86.00
2017-10-17T04:55:51.723Z,85.70
2017-10-17T04:58:24.188Z,86.20
2017-10-17T05:00:51.697Z,84.40
2017-10-17T05:03:24.722Z,83.50
2017-10-17T05:05:54.995Z,83.40
2017-10-17T05:08:29.863Z,84.60
2017-10-17T05:11:00.760Z,84.50
2017-10-17T05:13:34.872Z,83.70
2017-10-17T05:16:09.212Z,84.90
2017-10-17T05:21:31.646Z,83.00
2017-10-17T05:24:03.869Z,83.00
2017-10-17T05:26:31.363Z,83.60
2017-10-17T05:29:17.234Z,84.80
2017-10-17T05:31:48.299Z,85.20
2017-10-17T05:34:27.481Z,86.10
2017-10-17T05:36:59.629Z,86.20
2017-10-17T05:39:27.874Z,87.10
2017-10-17T05:41:55.368Z,87.00
2017-10-17T05:44:31.108Z,87.60
2017-10-17T05:47:01.276Z,87.50
2017-10-17T05:49:35.370Z,88.20
2017-10-17T05:52:02.855Z,87.80
2017-10-17T05:54:30.328Z,88.30
2017-10-17T05:56:57.814Z,88.10
2017-10-17T05:59:25.300Z,88.10
2017-10-17T06:01:53.550Z,88.30
2017-10-17T06:04:21.035Z,88.20
2017-10-17T06:06:49.292Z,87.50
2017-10-17T06:09:16.769Z,87.30
2017-10-17T06:11:45.072Z,87.10
2017-10-17T06:14:12.554Z,87.10
2017-10-17T06:16:40.043Z,87.70
2017-10-17T06:19:07.519Z,87.40
2017-10-17T06:21:35.766Z,88.10
2017-10-17T06:24:03.254Z,88.10
2017-10-17T06:26:31.514Z,88.10
2017-10-17T06:28:59.007Z,88.10
2017-10-17T06:31:26.504Z,88.20
2017-10-17T06:33:54.008Z,88.40
2017-10-17T06:36:22.280Z,88.80
2017-10-17T06:38:49.757Z,88.90
2017-10-17T06:41:17.247Z,88.70
2017-10-17T06:43:44.730Z,90.60
2017-10-17T06:46:12.213Z,88.70
2017-10-17T06:48:40.461Z,88.40
2017-10-17T06:51:07.948Z,88.20
2017-10-17T06:53:36.194Z,89.50
2017-10-17T06:56:03.675Z,89.40
2017-10-17T06:58:31.168Z,87.90
2017-10-17T07:00:58.642Z,88.10
2017-10-17T07:03:26.120Z,88.80
2017-10-17T07:05:53.614Z,88.90
2017-10-17T07:08:21.102Z,89.00
2017-10-17T07:10:48.580Z,90.00
2017-10-17T07:13:16.088Z,89.30
2017-10-17T07:15:43.575Z,88.90
2017-10-17T07:18:11.072Z,95.40
2017-10-17T07:20:38.563Z,88.30
2017-10-17T07:23:06.047Z,97.40
2017-10-17T07:25:33.534Z,95.90
2017-10-17T07:28:01.020Z,81.60
2017-10-17T07:30:28.508Z,96.20
2017-10-17T07:32:56.763Z,93.30
2017-10-17T07:35:24.250Z,93.30
2017-10-17T07:37:52.506Z,97.90
2017-10-17T07:40:20.762Z,83.60
2017-10-17T07:42:48.256Z,83.40
2017-10-17T07:45:16.511Z,86.00
2017-10-17T07:47:44.006Z,85.70
2017-10-17T07:50:12.254Z,91.50
2017-10-17T07:52:39.752Z,90.80
2017-10-17T07:55:07.235Z,92.50
2017-10-17T07:57:34.732Z,95.70
2017-10-17T08:00:02.223Z,81.10
2017-10-17T08:02:29.719Z,77.70
2017-10-17T08:04:57.199Z,93.90
2017-10-17T08:07:24.701Z,81.50
2017-10-17T08:09:52.946Z,94.00
2017-10-17T08:12:20.434Z,94.10
2017-10-17T08:14:48.690Z,84.70
2017-10-17T08:17:16.178Z,84.60
2017-10-17T08:19:43.667Z,90.90
2017-10-17T08:22:11.160Z,83.60
2017-10-17T08:24:38.660Z,83.00
2017-10-17T08:27:06.155Z,85.10
2017-10-17T08:29:33.647Z,86.80
2017-10-17T08:32:01.132Z,87.30
2017-10-17T08:34:28.623Z,87.60
2017-10-17T08:36:56.112Z,85.90
2017-10-17T08:39:23.615Z,87.30
2017-10-17T08:41:51.097Z,86.30
2017-10-17T08:44:18.590Z,87.00
2017-10-17T08:46:46.090Z,87.80
2017-10-17T08:49:13.574Z,88.30
2017-10-17T08:51:41.064Z,88.30
2017-10-17T08:54:08.588Z,89.30
2017-10-17T08:56:36.060Z,88.50
2017-10-17T08:59:03.539Z,88.80
2017-10-17T09:01:31.827Z,90.00
2017-10-17T09:03:59.314Z,90.00
2017-10-17T09:06:27.572Z,90.70
2017-10-17T09:08:55.851Z,91.20
2017-10-17T09:11:24.107Z,91.50
2017-10-17T09:13:51.602Z,91.40
2017-10-17T09:16:19.858Z,90.40
2017-10-17T09:18:47.347Z,90.40
2017-10-17T09:21:14.830Z,90.90
2017-10-17T09:23:42.319Z,90.50
2017-10-17T09:26:09.801Z,91.70
2017-10-17T09:28:38.055Z,93.10
2017-10-17T09:31:05.540Z,93.10
2017-10-17T09:33:33.798Z,95.40
2017-10-17T09:36:01.294Z,95.40
2017-10-17T09:38:28.829Z,94.80
2017-10-17T09:40:57.081Z,94.70
2017-10-17T09:43:24.571Z,94.70
2017-10-17T09:45:52.831Z,93.30
2017-10-17T09:48:20.322Z,93.30
2017-10-17T09:50:47.812Z,93.40
2017-10-17T09:53:15.295Z,91.70
2017-10-17T09:55:42.788Z,90.20
2017-10-17T09:58:11.042Z,90.30
2017-10-17T10:00:38.541Z,90.20
2017-10-17T10:03:06.031Z,91.10
2017-10-17T10:05:33.513Z,90.70
2017-10-17T10:08:01.013Z,90.30
2017-10-17T10:10:28.533Z,90.60
2017-10-17T10:12:56.031Z,92.30
2017-10-17T10:15:23.518Z,93.40
2017-10-17T10:17:51.001Z,90.10
2017-10-17T10:20:18.503Z,91.10
2017-10-17T10:22:46.774Z,91.60
2017-10-17T10:25:15.026Z,91.60
2017-10-17T10:27:42.519Z,91.60
2017-10-17T10:30:10.774Z,92.10
2017-10-17T10:32:38.249Z,92.10
2017-10-17T10:35:06.521Z,92.40
2017-10-17T10:37:34.797Z,91.40
2017-10-17T10:40:03.051Z,90.40
2017-10-17T10:42:30.549Z,90.40
2017-10-17T10:44:58.043Z,91.70
2017-10-17T10:47:25.525Z,91.30
2017-10-17T10:49:53.013Z,93.00
2017-10-17T10:52:21.261Z,91.50
2017-10-17T10:54:48.752Z,91.40
2017-10-17T10:57:17.036Z,90.90
2017-10-17T10:59:45.299Z,91.20
2017-10-17T11:02:13.566Z,93.50
2017-10-17T11:04:41.056Z,93.40
2017-10-17T11:07:08.542Z,93.10
2017-10-17T11:09:36.054Z,90.70
2017-10-17T11:12:04.306Z,93.00
2017-10-17T11:14:31.807Z,93.00
2017-10-17T11:16:59.292Z,91.30
2017-10-17T11:19:26.794Z,93.40
2017-10-17T11:21:54.286Z,92.40
2017-10-17T11:24:21.763Z,92.50
2017-10-17T11:26:49.250Z,92.30
2017-10-17T11:29:16.747Z,91.80
2017-10-17T11:31:45.001Z,92.40
2017-10-17T11:34:12.486Z,92.50
2017-10-17T11:36:40.758Z,92.70
2017-10-17T11:39:09.017Z,92.10
2017-10-17T11:41:48.367Z,92.10
2017-10-17T11:44:16.630Z,91.70
2017-10-17T11:46:44.118Z,91.70
2017-10-17T11:49:12.378Z,92.40
2017-10-17T11:51:40.663Z,92.80
2017-10-17T11:54:08.911Z,92.80
2017-10-17T11:56:36.401Z,92.70
2017-10-17T11:59:04.655Z,92.80
2017-10-17T12:01:32.557Z,92.80
2017-10-17T12:04:01.337Z,92.30
2017-10-17T12:06:29.792Z,92.30
2017-10-17T12:08:57.746Z,92.20
2017-10-17T12:11:25.662Z,92.80
2017-10-17T12:13:55.139Z,91.30
2017-10-17T12:16:23.154Z,91.30
2017-10-17T12:18:50.635Z,91.20
2017-10-17T12:21:18.168Z,91.40
2017-10-17T12:23:45.658Z,91.20
2017-10-17T12:26:13.163Z,91.30
2017-10-17T12:28:41.482Z,90.80
2017-10-17T12:31:08.970Z,90.80
2017-10-17T12:33:36.525Z,90.70
2017-10-17T12:36:04.205Z,91.00
2017-10-17T12:38:31.680Z,91.00
2017-10-17T12:40:59.941Z,91.30
2017-10-17T12:43:27.428Z,91.30
2017-10-17T12:45:55.695Z,90.30
2017-10-17T12:48:23.951Z,91.10
2017-10-17T12:50:51.439Z,91.10
2017-10-17T12:53:19.709Z,90.80
2017-10-17T12:55:47.958Z,90.70
2017-10-17T12:58:15.442Z,90.60
2017-10-17T13:00:43.717Z,91.00
2017-10-17T13:03:12.083Z,90.90
2017-10-17T13:05:39.623Z,90.90
2017-10-17T13:08:07.097Z,90.80
2017-10-17T13:10:34.582Z,90.90
2017-10-17T13:13:02.874Z,90.20
2017-10-17T13:15:31.129Z,90.70
2017-10-17T13:17:58.610Z,90.70
2017-10-17T13:20:26.895Z,90.80
2017-10-17T13:22:54.408Z,90.80
2017-10-17T13:25:21.928Z,90.60
2017-10-17T13:27:49.461Z,90.50
2017-10-17T13:30:17.720Z,91.00
2017-10-17T13:32:46.077Z,90.90
2017-10-17T13:35:13.565Z,90.90
2017-10-17T13:37:41.862Z,91.10
2017-10-17T13:40:09.376Z,91.00
2017-10-17T13:42:36.876Z,91.00
2017-10-17T13:45:05.139Z,91.00
2017-10-17T13:47:33.740Z,90.50
2017-10-17T13:50:02.062Z,90.30
2017-10-17T13:52:29.649Z,90.30
2017-10-17T13:54:57.221Z,90.40
2017-10-17T13:57:24.722Z,90.10
2017-10-17T13:59:52.271Z,89.70
2017-10-17T14:02:19.775Z,90.00
2017-10-17T14:04:47.264Z,88.30
2017-10-17T14:07:15.521Z,89.40
2017-10-17T14:09:43.016Z,89.20
2017-10-17T14:12:10.542Z,89.50
2017-10-17T14:14:38.323Z,90.00
2017-10-17T14:17:06.571Z,90.60
2017-10-17T14:19:34.063Z,90.30
2017-10-17T14:22:02.314Z,89.90
2017-10-17T14:24:29.804Z,89.90
2017-10-17T14:26:58.055Z,90.40
2017-10-17T14:29:25.544Z,90.30
2017-10-17T14:31:53.785Z,90.00
2017-10-17T14:34:21.261Z,89.90
2017-10-17T14:36:48.749Z,90.10
2017-10-17T14:39:16.243Z,90.40
2017-10-17T14:41:43.733Z,90.50
2017-10-17T14:44:11.231Z,90.20
2017-10-17T14:46:38.727Z,90.60
2017-10-17T14:49:06.982Z,90.60
2017-10-17T14:51:34.498Z,90.60
2017-10-17T14:54:02.023Z,90.50
2017-10-17T14:56:29.518Z,90.40
2017-10-17T14:58:57.774Z,90.80
2017-10-17T15:01:25.269Z,90.50
2017-10-17T15:03:53.522Z,90.70
2017-10-17T15:06:21.019Z,90.60
2017-10-17T15:08:48.506Z,90.70
2017-10-17T15:11:15.987Z,90.90
2017-10-17T15:13:43.471Z,90.90
2017-10-17T15:16:11.730Z,91.20
2017-10-17T15:18:39.224Z,91.10
2017-10-17T15:21:06.834Z,91.10
2017-10-17T15:23:34.355Z,91.30
2017-10-17T15:26:01.859Z,91.10
2017-10-17T15:28:29.333Z,91.30
2017-10-17T15:30:56.818Z,91.40
2017-10-17T15:33:25.077Z,91.40
2017-10-17T15:35:53.331Z,91.50
2017-10-17T15:38:20.808Z,91.50
2017-10-17T15:40:48.375Z,91.50
2017-10-17T15:43:16.621Z,91.60
2017-10-17T15:45:44.143Z,91.60
2017-10-17T15:48:11.662Z,91.40
2017-10-17T15:50:39.952Z,91.50
2017-10-17T15:53:08.198Z,91.40
2017-10-17T15:55:35.729Z,91.40
2017-10-17T15:58:03.240Z,91.40
2017-10-17T16:00:30.724Z,91.60
2017-10-17T16:02:58.214Z,91.70
2017-10-17T16:05:25.806Z,91.80
2017-10-17T16:07:53.309Z,91.50
2017-10-17T16:10:20.803Z,91.90
2017-10-17T16:12:49.079Z,92.00
2017-10-17T16:15:16.572Z,91.90
2017-10-17T16:17:44.856Z,93.10
2017-10-17T16:20:13.112Z,92.30
2017-10-17T16:22:40.607Z,92.30
2017-10-17T16:25:08.871Z,92.90
2017-10-17T16:27:37.146Z,93.80
2017-10-17T16:30:05.404Z,94.40
2017-10-17T16:32:32.914Z,94.30
2017-10-17T16:35:00.421Z,96.10
2017-10-17T16:37:27.946Z,97.70
2017-10-17T16:39:55.430Z,96.00
2017-10-17T16:42:22.915Z,97.60
2017-10-17T16:44:50.403Z,95.90
2017-10-17T16:47:17.902Z,95.90
2017-10-17T16:49:45.389Z,96.30
2017-10-17T16:52:13.662Z,95.80
2017-10-17T16:54:41.145Z,95.80
2017-10-17T16:57:09.403Z,95.70
2017-10-17T16:59:36.885Z,95.70
2017-10-17T17:02:05.153Z,95.30
2017-10-17T17:04:33.416Z,95.90
2017-10-17T17:07:00.907Z,95.90
2017-10-17T17:09:28.390Z,95.40
2017-10-17T17:11:55.889Z,95.60
2017-10-17T17:14:23.371Z,96.10
2017-10-17T17:16:51.633Z,96.30
2017-10-17T17:19:19.882Z,96.20
2017-10-17T17:21:47.385Z,96.10
2017-10-17T17:24:15.635Z,96.60
2017-10-17T17:26:43.137Z,96.60
2017-10-17T17:29:10.621Z,96.40
2017-10-17T17:31:38.107Z,96.30
2017-10-17T17:34:05.609Z,96.60
2017-10-17T17:36:33.095Z,97.00
2017-10-17T17:39:00.582Z,96.50
2017-10-17T17:41:28.078Z,96.10
2017-10-17T17:43:56.330Z,96.70
2017-10-17T17:46:25.345Z,96.60
2017-10-17T17:48:53.599Z,96.90
2017-10-17T17:51:21.124Z,96.80
2017-10-17T17:53:48.603Z,96.80
2017-10-17T17:56:16.086Z,97.30
2017-10-17T17:58:45.023Z,97.00
2017-10-17T18:01:13.347Z,97.30
2017-10-17T18:03:42.560Z,97.20
2017-10-17T18:06:10.880Z,97.50
2017-10-17T18:08:38.386Z,97.50
2017-10-17T18:11:05.897Z,97.40
2017-10-17T18:13:33.382Z,97.60
2017-10-17T18:16:00.881Z,97.60
2017-10-17T18:18:29.144Z,98.40
2017-10-17T18:20:57.406Z,98.80
2017-10-17T18:23:24.909Z,98.70
2017-10-17T18:25:52.403Z,98.80
2017-10-17T18:28:19.891Z,98.80
2017-10-17T18:30:47.388Z,99.00
2017-10-17T18:33:14.880Z,99.30
2017-10-17T18:35:42.382Z,99.40
2017-10-17T18:38:10.650Z,99.20
2017-10-17T18:40:38.145Z,99.30
2017-10-17T18:43:05.646Z,99.70
2017-10-17T18:45:33.157Z,99.80
2017-10-17T18:48:01.826Z,99.90
2017-10-17T18:50:30.574Z,99.90
2017-10-17T18:52:58.237Z,99.90
2017-10-17T18:55:26.369Z,99.90
2017-10-17T18:57:55.009Z,99.90
2017-10-17T19:00:22.963Z,99.90
2017-10-17T19:02:51.039Z,99.90
2017-10-17T19:05:18.796Z,99.90
2017-10-17T19:07:46.644Z,99.90
2017-10-17T19:10:14.451Z,99.90
2017-10-17T19:12:42.185Z,99.90
2017-10-17T19:15:10.102Z,99.90
2017-10-17T19:17:41.437Z,99.90
2017-10-17T19:20:08.986Z,99.90
2017-10-17T19:22:37.721Z,99.90
2017-10-17T19:25:06.504Z,99.90
2017-10-17T19:27:35.922Z,99.90
2017-10-17T19:30:03.803Z,99.90
2017-10-17T19:32:32.515Z,99.90
2017-10-17T19:35:00.377Z,99.90
2017-10-17T19:37:29.057Z,99.90
2017-10-17T19:39:56.810Z,99.90
2017-10-17T19:42:24.536Z,99.90
2017-10-17T19:44:52.403Z,99.90
2017-10-17T19:47:20.037Z,99.90
2017-10-17T19:49:47.800Z,99.90
2017-10-17T19:52:15.335Z,99.90
2017-10-17T19:54:43.175Z,99.90
2017-10-17T19:57:11.627Z,99.90
2017-10-17T19:59:39.224Z,99.90
2017-10-17T20:02:07.751Z,99.90
2017-10-17T20:04:35.398Z,99.90
2017-10-17T20:07:03.327Z,99.90
2017-10-17T20:09:32.066Z,99.90
2017-10-17T20:11:59.939Z,99.90
2017-10-17T20:14:27.719Z,99.90
2017-10-17T20:16:56.179Z,99.90
2017-10-17T20:19:24.378Z,99.90
2017-10-17T20:21:52.177Z,99.90
2017-10-17T20:24:20.667Z,99.90
2017-10-17T20:26:48.958Z,99.90
2017-10-17T20:29:16.569Z,99.90
2017-10-17T20:31:44.781Z,99.90
2017-10-17T20:34:13.807Z,99.90
2017-10-17T20:36:41.471Z,99.90
2017-10-17T20:39:09.474Z,99.90
2017-10-17T20:41:37.125Z,99.90
2017-10-17T20:44:04.910Z,99.90
2017-10-17T20:46:32.817Z,99.90
2017-10-17T20:49:01.754Z,99.90
2017-10-17T20:51:29.594Z,99.90
2017-10-17T20:53:57.537Z,99.90
2017-10-17T20:56:25.983Z,99.90
2017-10-17T20:58:53.918Z,99.90
2017-10-17T21:01:22.553Z,99.90
2017-10-17T21:03:50.101Z,99.90
2017-10-17T21:06:17.862Z,99.90
2017-10-17T21:08:45.494Z,99.90
2017-10-17T21:11:13.315Z,99.90
2017-10-17T21:13:42.048Z,99.90
2017-10-17T21:16:10.098Z,99.90
2017-10-17T21:18:38.292Z,99.90
2017-10-17T21:21:05.876Z,99.90
2017-10-17T21:23:33.462Z,99.90
2017-10-17T21:26:01.498Z,99.90
2017-10-17T21:28:29.134Z,99.90
2017-10-17T21:30:56.830Z,99.90
2017-10-17T21:33:24.580Z,99.90
2017-10-17T21:35:52.077Z,99.90
2017-10-17T21:38:19.573Z,99.90
2017-10-17T21:40:47.826Z,99.90
2017-10-17T21:43:15.302Z,99.90
2017-10-17T21:45:43.542Z,99.90
2017-10-17T21:50:53.175Z,99.60
2017-10-17T21:53:20.676Z,99.30
2017-10-17T21:55:48.166Z,99.10
2017-10-17T21:58:16.435Z,98.90
2017-10-17T22:00:56.694Z,99.40
2017-10-17T22:03:24.938Z,98.40
2017-10-17T22:05:52.429Z,98.40
2017-10-17T22:08:20.692Z,99.10
2017-10-17T22:10:48.177Z,99.00
2017-10-17T22:13:15.675Z,99.50
2017-10-17T22:15:43.156Z,99.20
2017-10-17T22:18:10.651Z,98.60
2017-10-17T22:20:38.898Z,99.10
2017-10-17T22:23:06.387Z,99.10
2017-10-17T22:25:34.637Z,98.80
2017-10-17T22:28:02.118Z,98.80
2017-10-17T22:30:30.396Z,99.20
2017-10-17T22:32:58.638Z,99.40
2017-10-17T22:35:26.113Z,99.40
2017-10-17T22:37:53.595Z,98.90
2017-10-17T22:40:21.843Z,98.90
2017-10-17T22:42:49.344Z,98.90
2017-10-17T22:45:16.827Z,98.50
2017-10-17T22:47:44.315Z,98.40
2017-10-17T22:50:11.995Z,98.60
2017-10-17T22:52:40.251Z,97.90
2017-10-17T22:55:07.733Z,97.80
2017-10-17T22:57:36.023Z,98.60
2017-10-17T23:00:04.274Z,98.50
2017-10-17T23:02:31.763Z,98.40
2017-10-17T23:05:00.015Z,97.60
2017-10-17T23:07:27.502Z,97.60
2017-10-17T23:09:54.993Z,98.10
2017-10-17T23:12:22.481Z,98.00
2017-10-17T23:14:49.959Z,97.30
2017-10-17T23:17:30.256Z,97.40
2017-10-17T23:20:11.272Z,97.60
2017-10-17T23:22:40.182Z,97.80
2017-10-17T23:25:07.683Z,97.70
2017-10-17T23:27:35.175Z,97.50
2017-10-17T23:30:03.041Z,97.40
2017-10-17T23:32:30.909Z,97.50
2017-10-17T23:34:58.385Z,97.60
2017-10-17T23:37:25.884Z,97.50
2017-10-17T23:39:53.387Z,97.60
2017-10-17T23:42:20.875Z,98.50
2017-10-17T23:44:50.023Z,98.10
2017-10-17T23:47:17.510Z,98.10
2017-10-17T23:49:48.132Z,97.90
2017-10-17T23:52:15.868Z,97.70
2017-10-17T23:54:43.402Z,97.80
2017-10-17T23:57:11.666Z,97.80
2017-10-17T23:59:39.909Z,97.90
